createdAt,value
2022-08-22T00:02:48.064Z,100079.47
2022-08-22T00:02:58.816Z,100150.81
2022-08-22T00:08:16.182Z,100159.13
2022-08-22T00:18:31.670Z,100173.50
2022-08-22T00:28:42.740Z,100164.00
2022-08-22T00:38:59.062Z,100163.06
2022-08-22T00:49:18.471Z,100156.25
2022-08-22T01:00:04.849Z,100152.91
2022-08-22T01:10:36.805Z,100163.06
2022-08-22T01:21:30.615Z,100157.91
2022-08-22T01:32:32.664Z,100151.75
2022-08-22T01:43:01.996Z,100145.88
2022-08-22T01:53:10.498Z,100139.00
2022-08-22T02:03:27.281Z,100145.63
2022-08-22T02:13:51.061Z,100139.00
2022-08-22T02:24:01.870Z,100146.53
2022-08-22T02:34:33.270Z,100136.19
2022-08-22T02:44:48.756Z,100139.44
2022-08-22T02:55:01.150Z,100137.75
2022-08-22T03:05:24.347Z,100140.47
2022-08-22T03:15:37.211Z,100136.00
2022-08-22T03:25:49.778Z,100141.88
2022-08-22T03:36:04.978Z,100129.69
2022-08-22T03:46:46.875Z,100132.94
2022-08-22T03:57:44.350Z,100155.88
2022-08-22T04:08:44.744Z,100159.81
2022-08-22T04:19:15.240Z,100165.38
2022-08-22T04:29:29.058Z,100166.25
2022-08-22T04:39:43.857Z,100175.47
2022-08-22T04:49:58.513Z,100172.06
2022-08-22T05:00:07.867Z,100181.00
2022-08-22T05:10:19.651Z,100191.47
2022-08-22T05:20:27.322Z,100197.47
2022-08-22T05:30:34.826Z,100198.44
2022-08-22T05:40:39.833Z,100192.72
2022-08-22T05:50:51.087Z,100198.81
2022-08-22T06:01:02.579Z,100200.63
2022-08-22T06:11:13.801Z,100199.00
2022-08-22T06:21:23.687Z,100197.47
2022-08-22T06:31:33.853Z,100190.00
2022-08-22T06:41:43.814Z,100205.63
2022-08-22T06:51:50.488Z,100200.44
2022-08-22T07:01:59.792Z,100191.59
2022-08-22T07:12:13.979Z,100201.53
2022-08-22T07:22:27.193Z,100202.16
2022-08-22T07:32:43.210Z,100203.50
2022-08-22T07:42:52.863Z,100211.00
2022-08-22T07:53:07.692Z,100222.41
2022-08-22T08:03:13.024Z,100225.84
2022-08-22T08:13:26.767Z,100222.25
2022-08-22T08:23:39.603Z,100213.03
2022-08-22T08:33:50.242Z,100208.38
2022-08-22T08:44:04.706Z,100209.63
2022-08-22T08:54:29.531Z,100210.72
2022-08-22T09:05:00.923Z,100191.84
2022-08-22T09:15:22.435Z,100199.06
2022-08-22T09:25:38.460Z,100180.19
2022-08-22T09:36:01.000Z,100176.41
2022-08-22T09:46:18.525Z,100160.19
2022-08-22T09:56:32.253Z,100147.44
2022-08-22T10:06:48.282Z,100132.78
2022-08-22T10:17:05.366Z,100126.97
2022-08-22T10:27:18.439Z,100105.06
2022-08-22T10:37:32.490Z,100094.56
2022-08-22T10:47:57.186Z,100089.22
2022-08-22T10:58:10.436Z,100088.50
2022-08-22T11:08:45.495Z,100087.03
2022-08-22T11:19:17.165Z,100075.09
2022-08-22T11:29:39.659Z,100075.72
2022-08-22T11:40:05.909Z,100070.25
2022-08-22T11:50:19.764Z,100061.16
2022-08-22T12:00:34.606Z,100046.06
2022-08-22T12:10:47.507Z,100048.69
2022-08-22T12:21:38.655Z,100038.63
2022-08-22T12:32:12.615Z,100021.06
2022-08-22T12:42:32.060Z,100012.44
2022-08-22T12:53:07.987Z,99995.13
2022-08-22T13:03:29.638Z,99985.72
2022-08-22T13:13:40.318Z,99991.84
2022-08-22T13:23:48.545Z,99970.63
2022-08-22T13:34:00.769Z,99963.59
2022-08-22T13:44:21.418Z,99955.84
2022-08-22T13:54:53.962Z,99948.38
2022-08-22T14:05:09.926Z,99940.25
2022-08-22T14:15:21.724Z,99938.06
2022-08-22T14:25:29.268Z,99933.97
2022-08-22T14:35:39.364Z,99941.16
2022-08-22T14:45:55.839Z,99925.03
2022-08-22T14:56:07.390Z,99905.06
2022-08-22T15:06:16.907Z,99898.31
2022-08-22T15:16:34.386Z,99906.81
2022-08-22T15:26:52.807Z,99901.31
2022-08-22T15:37:29.318Z,99890.69
2022-08-22T15:47:43.050Z,99883.38
2022-08-22T15:58:08.854Z,99874.69
2022-08-22T16:08:25.756Z,99875.28
2022-08-22T16:19:16.245Z,99876.09
2022-08-22T16:29:41.356Z,99866.78
2022-08-22T16:39:48.676Z,99855.59
2022-08-22T16:50:10.574Z,99850.50
2022-08-22T17:00:25.489Z,99845.28
2022-08-22T17:11:03.335Z,99868.91
2022-08-22T17:21:17.553Z,99872.09
2022-08-22T17:31:36.881Z,99880.75
2022-08-22T17:41:52.581Z,99879.09
2022-08-22T17:52:11.282Z,99894.28
2022-08-22T18:02:20.361Z,99904.47
2022-08-22T18:12:34.479Z,99913.94
2022-08-22T18:22:47.521Z,99913.03
2022-08-22T18:32:59.891Z,99924.03
2022-08-22T18:43:17.799Z,99925.84
2022-08-22T18:53:48.588Z,99927.81
2022-08-22T19:04:31.340Z,99945.47
2022-08-22T19:15:06.619Z,99969.25
2022-08-22T19:25:25.957Z,99962.66
2022-08-22T19:35:43.714Z,99972.41
2022-08-22T19:45:47.949Z,99982.03
2022-08-22T19:56:10.424Z,99978.75
2022-08-22T20:06:43.500Z,99985.03
2022-08-22T20:17:08.928Z,99989.53
2022-08-22T20:27:17.398Z,99984.13
2022-08-22T20:37:45.291Z,99995.28
2022-08-22T20:47:53.033Z,99996.16
2022-08-22T20:58:04.973Z,100005.66
2022-08-22T21:08:12.598Z,100008.22
2022-08-22T21:18:31.478Z,100030.56
2022-08-22T21:28:38.585Z,100032.94
2022-08-22T21:38:50.348Z,100037.13
2022-08-22T21:49:09.443Z,100036.19
2022-08-22T21:59:50.577Z,100038.81
2022-08-22T22:09:54.978Z,100049.88
2022-08-22T22:20:00.596Z,100059.34
2022-08-22T22:30:10.127Z,100078.44
2022-08-22T22:40:17.114Z,100079.34
2022-08-22T22:50:21.626Z,100087.25
2022-08-22T23:00:29.137Z,100094.19
2022-08-22T23:10:34.844Z,100093.44
2022-08-22T23:20:41.920Z,100098.50
2022-08-22T23:30:46.117Z,100112.31
2022-08-22T23:40:51.337Z,100119.28
2022-08-22T23:50:55.861Z,100124.22
